createdAt,value
2018-01-27T00:01:19.586Z,16.07
2018-01-27T00:03:47.087Z,16.63
2018-01-27T00:06:14.568Z,15.30
2018-01-27T00:08:42.061Z,19.43
2018-01-27T00:11:09.544Z,17.00
2018-01-27T00:13:37.043Z,20.03
2018-01-27T00:16:04.518Z,21.90
2018-01-27T00:18:32.019Z,18.90
2018-01-27T00:21:00.263Z,22.40
2018-01-27T00:23:27.771Z,20.73
2018-01-27T00:25:56.014Z,22.57
2018-01-27T00:28:23.510Z,21.53
2018-01-27T00:30:50.983Z,21.33
2018-01-27T00:33:18.483Z,18.77
2018-01-27T00:35:46.079Z,16.60
2018-01-27T00:38:13.582Z,15.37
2018-01-27T00:40:41.064Z,17.50
2018-01-27T00:43:08.555Z,20.03
2018-01-27T00:45:36.809Z,17.30
2018-01-27T00:48:04.306Z,25.20
2018-01-27T00:50:31.787Z,26.57
2018-01-27T00:53:00.043Z,23.30
2018-01-27T00:55:27.519Z,27.80
2018-01-27T00:57:55.019Z,27.53
2018-01-27T01:00:23.266Z,32.13
2018-01-27T01:02:50.762Z,22.50
2018-01-27T01:05:18.243Z,18.70
2018-01-27T01:07:46.511Z,19.03
2018-01-27T01:10:13.995Z,16.70
2018-01-27T01:12:42.257Z,19.70
2018-01-27T01:15:09.730Z,18.03
2018-01-27T01:17:37.231Z,18.80
2018-01-27T01:20:05.475Z,18.63
2018-01-27T01:22:32.971Z,22.20
2018-01-27T01:25:00.451Z,18.20
2018-01-27T01:27:28.715Z,18.57
2018-01-27T01:29:56.192Z,22.00
2018-01-27T01:32:23.692Z,17.03
2018-01-27T01:34:51.934Z,17.23
2018-01-27T01:37:19.406Z,20.83
2018-01-27T01:39:46.944Z,18.27
2018-01-27T01:42:20.962Z,20.53
2018-01-27T01:44:48.463Z,18.50
2018-01-27T01:47:15.939Z,23.43
2018-01-27T01:49:43.435Z,19.50
2018-01-27T01:52:10.916Z,22.57
2018-01-27T01:54:39.180Z,22.90
2018-01-27T01:57:06.662Z,26.60
2018-01-27T01:59:34.160Z,28.87
2018-01-27T02:02:01.639Z,26.23
2018-01-27T02:04:29.139Z,26.87
2018-01-27T02:06:56.620Z,31.40
2018-01-27T02:09:24.114Z,24.50
2018-01-27T02:11:51.599Z,23.97
2018-01-27T02:14:19.868Z,24.93
2018-01-27T02:16:47.344Z,18.47
2018-01-27T02:19:15.614Z,14.20
2018-01-27T02:21:43.091Z,12.63
2018-01-27T02:24:10.700Z,12.17
2018-01-27T02:26:38.167Z,9.50
2018-01-27T02:29:05.663Z,11.50
2018-01-27T02:31:33.135Z,10.67
2018-01-27T02:34:00.626Z,11.93
2018-01-27T02:36:28.099Z,9.90
2018-01-27T02:38:55.595Z,11.10
2018-01-27T02:41:23.843Z,12.80
2018-01-27T02:43:51.330Z,9.67
2018-01-27T02:46:18.807Z,12.17
2018-01-27T02:48:46.308Z,10.63
2018-01-27T02:51:14.542Z,9.20
2018-01-27T02:53:42.036Z,10.90
2018-01-27T02:56:09.515Z,10.60
2018-01-27T02:58:37.011Z,11.33
2018-01-27T03:01:04.482Z,10.10
2018-01-27T03:03:31.979Z,10.57
2018-01-27T03:05:59.454Z,10.37
2018-01-27T03:08:26.942Z,8.63
2018-01-27T03:10:54.419Z,9.50
2018-01-27T03:13:21.910Z,11.03
2018-01-27T03:15:50.147Z,8.50
2018-01-27T03:18:17.648Z,13.10
2018-01-27T03:20:45.118Z,13.60
2018-01-27T03:23:12.619Z,10.63
2018-01-27T03:25:40.859Z,11.00
2018-01-27T03:28:08.367Z,18.13
2018-01-27T03:30:36.610Z,12.73
2018-01-27T03:33:04.102Z,16.47
2018-01-27T03:35:31.580Z,16.67
2018-01-27T03:37:59.083Z,15.70
2018-01-27T03:40:26.558Z,15.57
2018-01-27T03:42:54.036Z,19.63
2018-01-27T03:45:21.530Z,18.37
2018-01-27T03:47:49.007Z,17.10
2018-01-27T03:50:16.511Z,20.23
2018-01-27T03:52:43.991Z,21.93
2018-01-27T03:55:12.249Z,16.77
2018-01-27T03:57:39.734Z,17.30
2018-01-27T04:00:07.227Z,17.20
2018-01-27T04:02:34.702Z,16.33
2018-01-27T04:05:02.195Z,15.77
2018-01-27T04:07:29.678Z,17.17
2018-01-27T04:09:57.176Z,18.90
2018-01-27T04:12:28.587Z,21.80
2018-01-27T04:14:56.087Z,19.53
2018-01-27T04:17:23.580Z,17.17
2018-01-27T04:19:51.079Z,21.50
2018-01-27T04:22:18.566Z,19.63
2018-01-27T04:24:46.059Z,16.50
2018-01-27T04:27:13.538Z,27.40
2018-01-27T04:29:41.038Z,14.20
2018-01-27T04:32:08.519Z,14.80
2018-01-27T04:34:36.786Z,14.83
2018-01-27T04:37:04.265Z,15.20
2018-01-27T04:39:31.763Z,14.30
2018-01-27T04:41:59.249Z,16.87
2018-01-27T04:44:26.747Z,20.33
2018-01-27T04:46:54.222Z,22.17
2018-01-27T04:49:21.722Z,16.27
2018-01-27T04:51:49.199Z,15.73
2018-01-27T04:54:17.460Z,19.10
2018-01-27T04:56:44.939Z,17.47
2018-01-27T04:59:12.435Z,20.60
2018-01-27T05:01:40.674Z,19.17
2018-01-27T05:04:08.171Z,15.87
2018-01-27T05:06:35.646Z,19.20
2018-01-27T05:09:03.907Z,21.43
2018-01-27T05:11:31.395Z,22.17
2018-01-27T05:13:58.895Z,19.20
2018-01-27T05:16:26.371Z,18.00
2018-01-27T05:18:53.874Z,17.50
2018-01-27T05:21:21.392Z,19.07
2018-01-27T05:23:48.880Z,16.50
2018-01-27T05:26:16.361Z,20.33
2018-01-27T05:28:43.857Z,15.10
2018-01-27T05:31:11.335Z,18.40
2018-01-27T05:33:38.831Z,15.43
2018-01-27T05:36:06.310Z,22.97
2018-01-27T05:38:34.607Z,16.80
2018-01-27T05:41:02.834Z,15.37
2018-01-27T05:43:30.338Z,16.43
2018-01-27T05:45:57.814Z,18.97
2018-01-27T05:48:25.318Z,16.57
2018-01-27T05:50:52.794Z,14.83
2018-01-27T05:53:20.275Z,13.70
2018-01-27T05:55:47.767Z,15.60
2018-01-27T05:58:15.248Z,12.30
2018-01-27T06:00:42.734Z,10.57
2018-01-27T06:03:10.986Z,13.60
2018-01-27T06:05:38.475Z,11.63
2018-01-27T06:08:05.956Z,12.60
2018-01-27T06:10:33.444Z,13.33
2018-01-27T06:13:01.687Z,12.20
2018-01-27T06:15:29.179Z,12.70
2018-01-27T06:17:56.650Z,13.80
2018-01-27T06:20:24.144Z,13.13
2018-01-27T06:22:52.390Z,10.93
2018-01-27T06:25:19.879Z,18.50
2018-01-27T06:27:47.350Z,18.53
2018-01-27T06:30:14.847Z,27.87
2018-01-27T06:32:43.082Z,11.40
2018-01-27T06:35:10.575Z,12.63
2018-01-27T06:37:38.047Z,16.70
2018-01-27T06:40:05.542Z,14.17
2018-01-27T06:42:33.783Z,16.17
2018-01-27T06:45:01.273Z,14.90
2018-01-27T06:47:28.738Z,17.53
2018-01-27T06:49:56.231Z,19.93
2018-01-27T06:52:25.431Z,18.87
2018-01-27T06:54:54.143Z,12.83
2018-01-27T06:57:22.382Z,10.27
2018-01-27T06:59:49.880Z,14.83
2018-01-27T07:02:17.360Z,15.03
2018-01-27T07:04:44.852Z,17.57
2018-01-27T07:07:12.326Z,22.50
2018-01-27T07:09:39.819Z,13.60
2018-01-27T07:12:07.295Z,16.23
2018-01-27T07:14:34.796Z,14.33
2018-01-27T07:17:02.268Z,12.07
2018-01-27T07:19:47.559Z,9.07
2018-01-27T07:22:15.031Z,15.73
2018-01-27T07:24:42.519Z,18.93
2018-01-27T07:27:10.772Z,27.10
2018-01-27T07:29:38.269Z,15.67
2018-01-27T07:32:06.515Z,15.90
2018-01-27T07:34:34.014Z,19.77
2018-01-27T07:37:01.487Z,13.17
2018-01-27T07:39:28.990Z,14.93
2018-01-27T07:41:56.468Z,14.80
2018-01-27T07:44:23.971Z,12.87
2018-01-27T07:46:51.449Z,14.80
2018-01-27T07:49:18.948Z,17.87
2018-01-27T07:51:47.195Z,10.93
2018-01-27T07:54:14.691Z,11.20
2018-01-27T07:56:42.544Z,12.50
2018-01-27T07:59:10.043Z,12.50
2018-01-27T08:01:37.528Z,38.50
2018-01-27T08:04:05.816Z,44.27
2018-01-27T08:06:33.291Z,25.77
2018-01-27T08:09:01.564Z,18.70
2018-01-27T08:11:29.038Z,14.30
2018-01-27T08:13:57.310Z,21.60
2018-01-27T08:16:24.787Z,20.20
2018-01-27T08:18:52.263Z,16.40
2018-01-27T08:21:20.518Z,13.83
2018-01-27T08:23:47.991Z,18.97
2018-01-27T08:26:15.498Z,21.50
2018-01-27T08:28:43.730Z,20.07
2018-01-27T08:31:11.226Z,17.93
2018-01-27T08:33:38.702Z,16.93
2018-01-27T08:36:06.193Z,20.00
2018-01-27T08:38:34.439Z,37.20
2018-01-27T08:41:01.941Z,46.90
2018-01-27T08:43:29.485Z,36.17
2018-01-27T08:45:56.992Z,18.13
2018-01-27T08:48:24.467Z,20.27
2018-01-27T08:50:52.792Z,18.57
2018-01-27T08:53:20.994Z,21.93
2018-01-27T08:55:48.487Z,15.30
2018-01-27T08:58:15.981Z,20.07
2018-01-27T09:00:44.267Z,21.27
2018-01-27T09:03:12.520Z,21.03
2018-01-27T09:05:40.026Z,40.47
2018-01-27T09:08:08.268Z,33.50
2018-01-27T09:10:35.776Z,23.20
2018-01-27T09:13:04.036Z,17.80
2018-01-27T09:15:31.547Z,19.00
2018-01-27T09:17:59.795Z,23.90
2018-01-27T09:20:27.334Z,17.07
2018-01-27T09:22:54.815Z,16.90
2018-01-27T09:25:22.315Z,22.30
2018-01-27T09:27:49.800Z,16.10
2018-01-27T09:30:18.187Z,20.67
2018-01-27T09:32:45.662Z,19.77
2018-01-27T09:35:13.162Z,20.53
2018-01-27T09:37:40.638Z,19.87
2018-01-27T09:40:08.126Z,22.50
2018-01-27T09:42:36.370Z,21.60
2018-01-27T09:45:04.633Z,24.83
2018-01-27T09:47:32.103Z,26.60
2018-01-27T09:49:59.598Z,20.33
2018-01-27T09:52:27.842Z,24.77
2018-01-27T09:54:55.334Z,21.90
2018-01-27T09:57:22.815Z,25.10
2018-01-27T09:59:50.315Z,87.53
2018-01-27T10:02:17.786Z,46.00
2018-01-27T10:04:45.286Z,27.67
2018-01-27T10:07:12.764Z,24.80
2018-01-27T10:09:40.258Z,28.37
2018-01-27T10:12:07.735Z,29.03
2018-01-27T10:14:35.246Z,28.60
2018-01-27T10:17:02.714Z,23.63
2018-01-27T10:19:30.214Z,24.97
2018-01-27T10:21:57.690Z,28.27
2018-01-27T10:24:25.190Z,28.73
2018-01-27T10:26:52.676Z,22.43
2018-01-27T10:29:20.150Z,25.70
2018-01-27T10:31:47.651Z,27.37
2018-01-27T10:34:15.127Z,33.27
2018-01-27T10:36:42.632Z,25.93
2018-01-27T10:39:10.111Z,23.57
2018-01-27T10:41:37.607Z,28.53
2018-01-27T10:44:05.079Z,24.00
2018-01-27T10:46:32.571Z,26.73
2018-01-27T10:49:00.055Z,86.00
2018-01-27T10:51:27.555Z,49.23
2018-01-27T10:53:55.036Z,29.43
2018-01-27T10:56:23.299Z,27.03
2018-01-27T10:58:50.775Z,25.33
2018-01-27T11:01:18.894Z,21.27
2018-01-27T11:03:46.383Z,26.73
2018-01-27T11:06:13.886Z,25.67
2018-01-27T11:08:41.358Z,19.00
2018-01-27T11:11:08.851Z,26.17
2018-01-27T11:13:36.322Z,22.37
2018-01-27T11:16:04.603Z,25.53
2018-01-27T11:18:32.079Z,27.57
2018-01-27T11:20:59.579Z,23.73
2018-01-27T11:23:27.054Z,22.60
2018-01-27T11:25:54.548Z,25.63
2018-01-27T11:28:22.031Z,264.97
2018-01-27T11:30:49.532Z,33.60
2018-01-27T11:33:17.773Z,403.03
2018-01-27T11:35:45.279Z,73.77
2018-01-27T11:38:12.758Z,74.10
2018-01-27T11:40:40.267Z,72.97
2018-01-27T11:43:07.744Z,42.90
2018-01-27T11:45:35.227Z,35.20
2018-01-27T11:48:02.720Z,26.47
2018-01-27T11:50:30.206Z,28.50
2018-01-27T11:52:57.702Z,26.87
2018-01-27T11:55:25.183Z,24.80
2018-01-27T11:57:52.676Z,24.70
2018-01-27T12:00:20.153Z,19.20
2018-01-27T12:02:47.654Z,26.30
2018-01-27T12:05:15.135Z,21.80
2018-01-27T12:07:43.398Z,23.53
2018-01-27T12:10:10.883Z,26.47
2018-01-27T12:12:38.399Z,26.90
2018-01-27T12:15:05.876Z,26.87
2018-01-27T12:17:34.134Z,29.30
2018-01-27T12:20:01.619Z,25.80
2018-01-27T12:22:29.122Z,26.20
2018-01-27T12:24:56.627Z,27.03
2018-01-27T12:27:24.895Z,26.50
2018-01-27T12:29:52.379Z,23.90
2018-01-27T12:32:19.879Z,32.90
2018-01-27T12:34:47.355Z,27.03
2018-01-27T12:37:14.849Z,28.10
2018-01-27T12:39:42.328Z,25.63
2018-01-27T12:42:09.817Z,28.23
2018-01-27T12:44:37.314Z,27.97
2018-01-27T12:47:05.555Z,30.43
2018-01-27T12:49:33.054Z,26.97
2018-01-27T12:52:00.549Z,35.97
2018-01-27T12:54:28.052Z,30.40
2018-01-27T12:56:55.526Z,30.90
2018-01-27T12:59:23.026Z,25.60
2018-01-27T13:01:50.521Z,28.03
2018-01-27T13:04:18.783Z,30.03
2018-01-27T13:06:46.292Z,31.67
2018-01-27T13:09:13.790Z,30.27
2018-01-27T13:11:41.270Z,31.90
2018-01-27T13:14:08.766Z,37.33
2018-01-27T13:16:36.246Z,35.93
2018-01-27T13:19:03.750Z,33.53
2018-01-27T13:21:31.230Z,32.73
2018-01-27T13:23:58.730Z,33.37
2018-01-27T13:26:26.221Z,29.43
2018-01-27T13:28:53.725Z,35.23
2018-01-27T13:31:21.213Z,29.67
2018-01-27T13:33:48.726Z,33.83
2018-01-27T13:36:16.211Z,33.83
2018-01-27T13:38:44.491Z,35.40
2018-01-27T13:41:11.972Z,32.37
2018-01-27T13:43:40.211Z,34.30
2018-01-27T13:46:07.706Z,36.77
2018-01-27T13:48:35.188Z,34.17
2018-01-27T13:51:02.688Z,35.60
2018-01-27T13:53:30.179Z,37.50
2018-01-27T13:55:57.678Z,33.70
2018-01-27T13:58:25.158Z,35.17
2018-01-27T14:00:52.650Z,31.03
2018-01-27T14:03:20.900Z,35.13
2018-01-27T14:05:48.421Z,34.30
2018-01-27T14:08:15.906Z,30.87
2018-01-27T14:10:43.463Z,32.63
2018-01-27T14:13:10.906Z,39.53
2018-01-27T14:15:38.407Z,27.43
2018-01-27T14:18:05.882Z,31.53
2018-01-27T14:20:33.388Z,27.57
2018-01-27T14:23:00.862Z,31.83
2018-01-27T14:25:28.363Z,32.30
2018-01-27T14:27:55.914Z,30.57
2018-01-27T14:30:23.407Z,32.30
2018-01-27T14:32:51.655Z,34.60
2018-01-27T14:35:19.147Z,29.00
2018-01-27T14:37:46.619Z,35.50
2018-01-27T14:40:14.133Z,38.70
2018-01-27T14:42:41.611Z,36.53
2018-01-27T14:45:09.087Z,40.37
2018-01-27T14:47:36.582Z,48.07
2018-01-27T14:50:04.060Z,46.30
2018-01-27T14:52:31.554Z,45.30
2018-01-27T14:54:59.803Z,40.07
2018-01-27T14:57:27.297Z,34.70
2018-01-27T14:59:54.776Z,34.37
2018-01-27T15:02:22.267Z,42.60
2018-01-27T15:04:49.743Z,40.93
2018-01-27T15:07:17.234Z,44.83
2018-01-27T15:09:44.711Z,46.53
2018-01-27T15:12:12.206Z,53.67
2018-01-27T15:14:39.696Z,44.87
2018-01-27T15:17:07.201Z,55.37
2018-01-27T15:19:34.687Z,49.37
2018-01-27T15:22:02.943Z,52.53
2018-01-27T15:24:31.199Z,53.67
2018-01-27T15:26:58.699Z,53.03
2018-01-27T15:29:26.945Z,52.70
2018-01-27T15:31:54.443Z,56.40
2018-01-27T15:34:21.919Z,53.17
2018-01-27T15:36:49.417Z,57.47
2018-01-27T15:39:16.895Z,57.20
2018-01-27T15:41:44.391Z,59.23
2018-01-27T15:44:11.874Z,52.23
2018-01-27T15:46:39.393Z,53.17
2018-01-27T15:49:06.879Z,61.23
2018-01-27T15:51:34.391Z,63.87
2018-01-27T15:54:01.866Z,70.80
2018-01-27T15:56:29.366Z,67.93
2018-01-27T15:58:56.839Z,56.77
2018-01-27T16:01:24.331Z,50.07
2018-01-27T16:03:51.836Z,49.00
2018-01-27T16:06:19.330Z,52.63
2018-01-27T16:08:47.570Z,54.03
2018-01-27T16:11:15.066Z,51.07
2018-01-27T16:13:42.530Z,66.20
2018-01-27T16:16:10.032Z,54.07
2018-01-27T16:18:38.283Z,55.13
2018-01-27T16:21:05.774Z,62.03
2018-01-27T16:23:33.257Z,78.97
2018-01-27T16:26:01.520Z,63.13
2018-01-27T16:28:28.998Z,130.20
2018-01-27T16:30:56.494Z,67.17
2018-01-27T16:33:24.757Z,66.13
2018-01-27T16:35:52.255Z,54.53
2018-01-27T16:38:19.764Z,54.93
2018-01-27T16:40:47.250Z,61.13
2018-01-27T16:43:14.731Z,43.40
2018-01-27T16:45:42.211Z,73.50
2018-01-27T16:48:09.708Z,45.50
2018-01-27T16:50:37.190Z,36.03
2018-01-27T16:53:04.683Z,36.33
2018-01-27T16:55:32.180Z,48.60
2018-01-27T16:57:59.683Z,48.63
2018-01-27T17:00:27.174Z,49.07
2018-01-27T17:02:54.680Z,50.73
2018-01-27T17:05:22.166Z,54.07
2018-01-27T17:07:49.671Z,49.57
2018-01-27T17:10:17.151Z,54.33
2018-01-27T17:12:44.651Z,59.60
2018-01-27T17:15:12.131Z,67.23
2018-01-27T17:17:39.633Z,84.40
2018-01-27T17:20:07.106Z,56.60
2018-01-27T17:22:35.374Z,54.83
2018-01-27T17:25:02.865Z,63.30
2018-01-27T17:27:31.135Z,71.83
2018-01-27T17:29:58.628Z,108.17
2018-01-27T17:32:26.943Z,89.07
2018-01-27T17:34:55.147Z,56.63
2018-01-27T17:37:22.651Z,49.17
2018-01-27T17:39:50.147Z,54.53
2018-01-27T17:42:17.643Z,46.77
2018-01-27T17:44:45.118Z,55.97
2018-01-27T17:47:12.624Z,56.63
2018-01-27T17:49:40.102Z,47.80
2018-01-27T17:52:07.601Z,47.40
2018-01-27T17:54:35.087Z,59.20
2018-01-27T17:57:02.592Z,63.93
2018-01-27T17:59:30.075Z,57.17
2018-01-27T18:01:57.580Z,50.10
2018-01-27T18:04:25.818Z,62.67
2018-01-27T18:06:53.318Z,63.17
2018-01-27T18:09:20.803Z,53.20
2018-01-27T18:11:49.070Z,68.17
2018-01-27T18:14:16.542Z,66.53
2018-01-27T18:16:44.039Z,59.10
2018-01-27T18:19:11.521Z,61.60
2018-01-27T18:21:39.023Z,73.50
2018-01-27T18:24:06.510Z,74.53
2018-01-27T18:26:34.021Z,68.23
2018-01-27T18:29:01.495Z,94.90
2018-01-27T18:31:28.999Z,86.93
2018-01-27T18:33:56.479Z,83.33
2018-01-27T18:36:23.979Z,88.67
2018-01-27T18:38:52.223Z,99.33
2018-01-27T18:41:20.594Z,83.97
2018-01-27T18:43:48.089Z,83.43
2018-01-27T18:46:15.605Z,112.30
2018-01-27T18:48:43.860Z,94.77
2018-01-27T18:51:11.366Z,95.27
2018-01-27T18:53:39.611Z,96.30
2018-01-27T18:56:07.090Z,100.03
2018-01-27T18:58:34.582Z,97.40
2018-01-27T19:01:02.068Z,89.90
2018-01-27T19:03:30.330Z,92.23
2018-01-27T19:05:57.816Z,104.03
2018-01-27T19:08:26.079Z,102.37
2018-01-27T19:10:53.562Z,95.83
2018-01-27T19:13:21.064Z,98.17
2018-01-27T19:15:48.543Z,120.83
2018-01-27T19:18:16.049Z,112.30
2018-01-27T19:20:43.526Z,98.17
2018-01-27T19:23:11.023Z,84.80
2018-01-27T19:25:39.263Z,96.77
2018-01-27T19:28:06.767Z,92.33
2018-01-27T19:30:34.248Z,101.47
2018-01-27T19:33:02.512Z,85.07
2018-01-27T19:35:29.987Z,92.13
2018-01-27T19:37:57.484Z,73.00
2018-01-27T19:40:25.732Z,79.13
2018-01-27T19:42:53.236Z,74.90
2018-01-27T19:45:20.721Z,74.07
2018-01-27T19:47:48.232Z,68.20
2018-01-27T19:50:15.708Z,69.83
2018-01-27T19:52:43.206Z,68.60
2018-01-27T19:55:11.459Z,60.20
2018-01-27T19:57:38.954Z,70.27
2018-01-27T20:00:06.439Z,65.30
2018-01-27T20:02:34.711Z,73.87
2018-01-27T20:05:02.190Z,75.13
2018-01-27T20:07:29.690Z,72.77
2018-01-27T20:09:57.162Z,67.00
2018-01-27T20:12:24.736Z,69.43
2018-01-27T20:14:52.224Z,77.40
2018-01-27T20:17:19.720Z,71.07
2018-01-27T20:19:47.196Z,79.93
2018-01-27T20:22:14.694Z,81.57
2018-01-27T20:24:42.949Z,77.10
2018-01-27T20:27:10.446Z,82.97
2018-01-27T20:29:38.695Z,69.53
2018-01-27T20:32:06.187Z,70.37
2018-01-27T20:34:33.666Z,69.53
2018-01-27T20:37:01.167Z,67.43
2018-01-27T20:39:28.652Z,73.63
2018-01-27T20:41:56.156Z,67.20
2018-01-27T20:44:23.635Z,73.17
2018-01-27T20:46:51.130Z,80.57
2018-01-27T20:49:18.603Z,68.37
2018-01-27T20:51:46.871Z,71.10
2018-01-27T20:54:14.346Z,75.23
2018-01-27T20:56:41.843Z,71.17
2018-01-27T20:59:09.316Z,75.60
2018-01-27T21:01:36.791Z,60.90
2018-01-27T21:04:04.399Z,80.93
2018-01-27T21:06:31.883Z,75.47
2018-01-27T21:08:59.374Z,76.20
2018-01-27T21:11:27.634Z,65.60
2018-01-27T21:13:55.135Z,70.50
2018-01-27T21:16:23.379Z,64.07
2018-01-27T21:18:50.894Z,65.20
2018-01-27T21:21:19.700Z,64.33
2018-01-27T21:23:47.958Z,57.70
2018-01-27T21:26:15.438Z,64.27
2018-01-27T21:28:42.942Z,63.93
2018-01-27T21:31:10.415Z,57.90
2018-01-27T21:33:37.919Z,56.07
2018-01-27T21:36:05.400Z,51.57
2018-01-27T21:38:32.896Z,46.90
2018-01-27T21:41:00.370Z,53.37
2018-01-27T21:43:28.635Z,48.57
2018-01-27T21:45:56.112Z,49.30
2018-01-27T21:48:23.611Z,58.00
2018-01-27T21:50:51.094Z,50.47
2018-01-27T21:53:18.589Z,48.50
2018-01-27T21:55:46.064Z,52.17
2018-01-27T21:58:13.563Z,49.90
2018-01-27T22:00:41.070Z,56.17
2018-01-27T22:03:08.572Z,50.43
2018-01-27T22:05:36.052Z,50.50
2018-01-27T22:08:03.558Z,45.67
2018-01-27T22:10:31.796Z,49.73
2018-01-27T22:12:59.291Z,52.83
2018-01-27T22:15:26.771Z,49.40
2018-01-27T22:17:54.270Z,46.90
2018-01-27T22:20:21.743Z,51.80
2018-01-27T22:22:49.238Z,47.33
2018-01-27T22:25:16.714Z,51.10
2018-01-27T22:27:44.216Z,48.40
2018-01-27T22:30:11.692Z,49.83
2018-01-27T22:32:39.198Z,55.97
2018-01-27T22:35:06.674Z,54.37
2018-01-27T22:37:34.171Z,58.00
2018-01-27T22:40:01.645Z,52.97
2018-01-27T22:42:29.142Z,59.40
2018-01-27T22:44:56.620Z,68.80
2018-01-27T22:47:24.114Z,56.07
2018-01-27T22:49:51.594Z,61.53
2018-01-27T22:52:19.090Z,61.17
2018-01-27T22:54:46.566Z,60.13
2018-01-27T22:57:14.054Z,59.47
2018-01-27T22:59:41.535Z,60.07
2018-01-27T23:02:09.035Z,72.20
2018-01-27T23:04:36.511Z,58.30
2018-01-27T23:07:03.993Z,63.50
2018-01-27T23:09:31.486Z,63.20
2018-01-27T23:11:58.998Z,67.97
2018-01-27T23:14:27.258Z,65.40
2018-01-27T23:16:54.731Z,66.57
2018-01-27T23:19:22.226Z,64.37
2018-01-27T23:21:50.472Z,60.70
2018-01-27T23:24:17.964Z,70.10
2018-01-27T23:26:45.450Z,70.07
2018-01-27T23:29:13.715Z,63.20
2018-01-27T23:31:41.191Z,67.30
2018-01-27T23:34:08.684Z,60.23
2018-01-27T23:36:36.927Z,57.07
2018-01-27T23:39:04.422Z,55.23
2018-01-27T23:41:31.898Z,55.90
2018-01-27T23:43:59.395Z,54.60
2018-01-27T23:46:26.875Z,57.33
2018-01-27T23:48:54.376Z,59.13
2018-01-27T23:51:21.854Z,58.20
2018-01-27T23:53:49.346Z,61.07
2018-01-27T23:56:16.831Z,52.20
2018-01-27T23:58:45.099Z,50.27
